KHYA

Barnstable Municipal-Boardman/Polando Field Airport

Hyannis, Massachusetts, USA
METAR KHYA 151856Z 21005KT 10SM CLR M02/M09 A2998 RMK AO2 SLP155 T10221094
Observed Flight Rules
Dec-15 @ 18:56 UTC (29 minutes ago) Visual Flight Rules
Wind Visibility Clouds
210° at 5 knots 10 miles
  • Clear skies
Temperatures Readings
Current -2°C / 28°F
Dewpoint -9°C / 16°F
Humidity 59%
Altimeter 29.98" Hg
Pressure 1015.5 hPa
Elevation 22
METAR KHYA 151856Z 21005KT 10SM CLR M02/M09 A2998 RMK AO2 SLP155 T10221094
Observed Flight Rules
Dec-15 @ 18:56 UTC
(29 minutes ago)
VFR
Wind Visibility
210° at 5 knots 10 miles
Clouds
  • Clear skies
Temperature Dewpoint
-2°C / 28°F -9°C / 16°F
Humidity Altimeter Pressure
59% 29.98" Hg 1015.5 hPa